Data for 09/18/2009

Time Sea-Level Adjusted Pressure Absolute Pressure Temperature Relative Humidity Dew Point   
(mb) (inHg) (mb) (inHg) (C) (F) (%) (C) (F)
00:05 1022 30.18 852 25.16 18.7 65.7 44 6.2 43.2
00:10 1022 30.18 852 25.16 18.7 65.7 42 5.7 42.3
00:15 1023 30.21 852 25.16 18.9 65.9 44 6.4 43.6
00:20 1023 30.21 852 25.16 18.8 65.8 43 6.1 43
00:25 1023 30.21 852 25.16 18.7 65.7 43 6.1 43.1
00:30 1023 30.21 852 25.16 18.6 65.4 44 6.1 43
00:35 1023 30.21 852 25.16 18.6 65.5 44 6.2 43.1
00:40 1023 30.21 852 25.16 18.8 65.8 44 6.5 43.7
00:45 1023 30.21 852 25.16 18.9 66 44 6.4 43.6
00:50 1023 30.21 852 25.16 19 66.1 45 6.8 44.3
00:55 1023 30.21 852 25.16 18.7 65.7 44 6.5 43.6
01:00 1023 30.21 852 25.16 18.8 65.8 45 6.6 44
01:05 1023 30.21 852 25.16 18.7 65.7 45 6.7 44.1
01:10 1023 30.21 852 25.16 18.8 65.8 45 6.9 44.4
01:15 1023 30.21 852 25.16 18.3 64.9 48 7.1 44.8
01:20 1023 30.21 852 25.16 17.8 64.1 48 6.7 44.1
01:25 1023 30.21 852 25.16 17.9 64.2 50 7.5 45.6
01:30 1023 30.21 852 25.16 17.7 63.9 49 7.1 44.8
01:35 1023 30.21 852 25.16 17.2 63 51 7.1 44.7
01:40 1023 30.21 852 25.16 16.8 62.2 53 7.3 45.1
01:45 1023 30.21 852 25.16 16.4 61.5 52 6.5 43.7
01:50 1023 30.21 852 25.16 16.8 62.2 50 6.6 43.8
01:55 1023 30.21 852 25.16 16.9 62.3 51 6.7 44.1
02:00 1023 30.21 852 25.16 16.9 62.4 50 6.5 43.7
02:05 1023 30.21 852 25.16 17.2 62.9 52 7.4 45.4
02:10 1023 30.21 852 25.16 16.6 61.8 53 7.1 44.7
02:15 1023 30.21 852 25.16 16.1 61 53 6.7 44.1
02:20 1023 30.21 852 25.16 16.1 61 54 7 44.5
02:25 1023 30.21 852 25.16 15.7 60.2 55 6.8 44.2
02:30 1023 30.21 852 25.16 15.5 59.9 56 7 44.6
02:35 1023 30.21 852 25.16 15.4 59.7 55 6.5 43.6
02:40 1023 30.21 852 25.16 15.9 60.6 54 6.6 43.9
02:45 1023 30.21 852 25.16 16.2 61.1 52 6.4 43.6
02:50 1023 30.21 852 25.16 16.3 61.3 52 6.4 43.5
02:55 1023 30.21 852 25.16 16.5 61.7 51 6.6 43.8
03:00 1023 30.21 852 25.16 16.2 61.2 53 6.8 44.3
03:05 1023 30.21 852 25.16 16.3 61.3 52 6.6 43.9
03:10 1023 30.21 852 25.16 16.4 61.5 55 7.4 45.3
03:15 1023 30.21 852 25.16 16.6 62 50 6.1 43.1
03:20 1023 30.21 852 25.16 16.7 62.1 54 7.6 45.7
03:25 1023 30.21 852 25.16 16.4 61.6 52 6.6 43.8
03:30 1023 30.21 852 25.16 16 60.7 54 6.7 44
03:35 1023 30.21 852 25.16 15.8 60.4 54 6.4 43.6
03:40 1023 30.21 852 25.16 16 60.7 53 6.5 43.7
03:45 1023 30.21 852 25.16 16 60.8 52 6.1 43
03:50 1023 30.21 852 25.16 16.2 61.2 52 6.5 43.7
03:55 1023 30.21 852 25.16 15.7 60.3 54 6.6 43.9
04:00 1023 30.21 852 25.16 15.4 59.7 54 6.2 43.2
04:05 1023 30.21 852 25.16 15.7 60.2 53 6.3 43.3
04:10 1023 30.21 852 25.16 15.7 60.3 54 6.5 43.6
04:15 1023 30.21 852 25.16 15.3 59.6 55 6.6 43.8
04:20 1023 30.21 852 25.16 15 59 56 6.3 43.4
04:25 1023 30.21 852 25.16 15.2 59.4 55 6.3 43.3
04:30 1023 30.21 852 25.16 15 59 57 6.6 43.8
04:35 1023 30.21 852 25.16 14.7 58.5 59 6.9 44.5
04:40 1023 30.21 852 25.16 14.5 58 59 6.6 43.9
04:45 1023 30.21 852 25.16 14.4 57.9 59 6.5 43.7
04:50 1023 30.21 852 25.16 14.3 57.7 59 6.4 43.6
04:55 1023 30.21 852 25.16 14.4 57.9 59 6.4 43.6
05:00 1023 30.21 852 25.16 14.4 57.8 59 6.5 43.8
05:05 1023 30.21 852 25.16 14.4 57.9 59 6.4 43.6
05:10 1023 30.21 852 25.16 14.5 58.2 59 6.6 43.8
05:15 1023 30.21 852 25.16 14.8 58.6 57 6.5 43.6
05:20 1023 30.21 852 25.16 14.8 58.7 57 6.5 43.6
05:25 1023 30.21 852 25.16 15 59 56 6.5 43.7
05:30 1023 30.21 852 25.16 14.9 58.8 57 6.5 43.7
05:35 1023 30.21 852 25.16 14.9 58.8 57 6.5 43.8
05:40 1023 30.21 852 25.16 14.6 58.3 59 6.7 44.1
05:45 1023 30.21 852 25.16 14 57.3 62 7 44.7
05:50 1023 30.21 852 25.16 13.8 56.8 60 6.3 43.3
05:55 1023 30.21 852 25.16 14.3 57.7 58 6.3 43.3
06:00 1023 30.21 852 25.16 14.4 57.9 60 6.9 44.4
06:05 1023 30.21 852 25.16 13.7 56.6 63 6.9 44.5
06:10 1023 30.21 852 25.16 13.1 55.6 65 6.7 44
06:15 1023 30.21 852 25.16 12.9 55.3 65 6.7 44
06:20 1023 30.21 852 25.16 12.9 55.1 65 6.6 43.8
06:25 1023 30.21 852 25.16 12.7 54.8 66 6.6 43.8
06:30 1023 30.21 852 25.16 12.7 54.9 65 6.3 43.4
06:35 1023 30.21 852 25.16 12.7 54.9 66 6.5 43.8
06:40 1023 30.21 852 25.16 12.4 54.3 67 6.5 43.8
06:45 1023 30.21 852 25.16 12.3 54.2 67 6.4 43.5
06:50 1023 30.21 852 25.16 12.2 53.9 68 6.5 43.7
06:55 1023 30.21 852 25.16 12 53.6 68 6.3 43.3
07:00 1023 30.21 852 25.16 12 53.6 69 6.4 43.6
07:05 1023 30.21 852 25.16 11.8 53.3 69 6.4 43.6
07:10 1023 30.21 853 25.19 11.9 53.4 67 6 42.8
07:15 1023 30.21 853 25.19 12.6 54.8 65 6.2 43.2
07:20 1023 30.21 853 25.19 12.8 55.1 64 6.1 43
07:25 1023 30.21 853 25.19 13.4 56.1 62 6.4 43.4
07:30 1023 30.21 853 25.19 13.5 56.2 62 6.4 43.5
07:35 1023 30.21 853 25.19 13.5 56.3 62 6.5 43.7
07:40 1023 30.21 853 25.19 13.4 56.2 63 6.5 43.7
07:45 1023 30.21 853 25.19 13.4 56 62 6.3 43.4
07:50 1024 30.24 853 25.19 13.5 56.2 62 6.3 43.3
07:55 1024 30.24 853 25.19 13.7 56.6 61 6.3 43.3
08:00 1024 30.24 853 25.19 14.1 57.4 59 6.3 43.3
08:05 1024 30.24 853 25.19 14.4 57.9 59 6.5 43.7
08:10 1024 30.24 853 25.19 14.5 58.1 58 6.5 43.7
08:15 1024 30.24 853 25.19 14.6 58.3 58 6.6 43.9
08:20 1024 30.24 853 25.19 14.8 58.6 58 6.7 44.1
08:25 1024 30.24 853 25.19 14.9 58.9 58 6.8 44.3
08:30 1024 30.24 853 25.19 15.1 59.2 58 7 44.6
08:35 1024 30.24 853 25.19 15.2 59.4 57 6.9 44.4
08:40 1024 30.24 853 25.19 15.4 59.7 56 6.8 44.3
08:45 1024 30.24 853 25.19 15.5 60 56 6.9 44.5
08:50 1023 30.21 853 25.19 15.5 59.9 57 7.1 44.8
08:55 1023 30.21 853 25.19 16.1 60.9 55 7.2 44.9
09:00 1023 30.21 853 25.19 16.5 61.7 54 7.3 45.2
09:05 1024 30.24 853 25.19 16.8 62.3 53 7.3 45.1
09:10 1024 30.24 853 25.19 17.1 62.8 51 7.1 44.8
09:15 1024 30.24 853 25.19 17.7 63.9 50 7.1 44.9
09:20 1023 30.21 853 25.19 18.3 64.9 50 7.7 45.8
09:25 1023 30.21 853 25.19 18.3 65 49 7.5 45.4
09:30 1024 30.24 853 25.19 18.9 66.1 49 8 46.4
09:35 1024 30.24 853 25.19 19.4 67 47 7.9 46.3
09:40 1024 30.24 853 25.19 20 68 45 7.8 46.1
09:45 1024 30.24 853 25.19 20.8 69.5 41 7.4 45.4
09:50 1024 30.24 853 25.19 21.4 70.5 40 7.3 45.2
09:55 1024 30.24 853 25.19 21.9 71.5 38 7.3 45.1
10:00 1024 30.24 853 25.19 22.2 71.9 39 7.7 45.8
10:05 1024 30.24 853 25.19 22 71.6 39 7.5 45.6
10:10 1024 30.24 853 25.19 22.1 71.7 39 7.6 45.7
10:15 1024 30.24 853 25.19 22.1 71.8 40 8.2 46.8
10:20 1024 30.24 853 25.19 21.8 71.3 41 8.3 47
10:25 1024 30.24 853 25.19 21.7 71 41 7.9 46.2
10:30 1024 30.24 853 25.19 22.2 71.9 40 7.9 46.3
10:35 1024 30.24 853 25.19 21.6 71 42 8.4 47.1
10:40 1024 30.24 853 25.19 21.3 70.4 42 8 46.3
10:45 1024 30.24 853 25.19 21.5 70.7 43 8.5 47.3
10:50 1024 30.24 853 25.19 21.1 70.1 41 7.6 45.7
10:55 1024 30.24 853 25.19 22.4 72.3 38 7.5 45.6
11:00 1023 30.21 853 25.19 22.6 72.6 40 8.4 47.2
11:05 1023 30.21 853 25.19 22.7 72.9 38 7.9 46.3
11:10 1023 30.21 853 25.19 23 73.4 38 8 46.3
11:15 1023 30.21 853 25.19 23 73.5 39 8.4 47.1
11:20 1023 30.21 852 25.16 22.4 72.3 40 8.5 47.2
11:25 1023 30.21 852 25.16 22.6 72.7 38 7.7 45.9
11:30 1023 30.21 852 25.16 23.2 73.7 37 7.7 45.9
11:35 1023 30.21 852 25.16 23 73.4 37 7.7 45.8
11:40 1023 30.21 852 25.16 23.1 73.7 37 7.7 45.9
11:45 1023 30.21 852 25.16 23.4 74 37 8 46.3
11:50 1023 30.21 852 25.16 22.7 72.8 39 8.4 47.1
11:55 1023 30.21 852 25.16 23.3 73.9 37 7.8 46.1
12:00 1023 30.21 852 25.16 23 73.5 38 8.2 46.8
12:05 1023 30.21 852 25.16 23.3 74 38 8.2 46.8
12:10 1023 30.21 852 25.16 23.5 74.2 38 8.3 47
12:15 1023 30.21 852 25.16 23 73.4 37 7.9 46.2
12:20 1023 30.21 852 25.16 23 73.3 35 6.9 44.4
12:25 1023 30.21 852 25.16 23.9 75 34 7.4 45.4
12:30 1023 30.21 852 25.16 24.2 75.5 35 7.8 46
12:35 1023 30.21 852 25.16 24.7 76.4 33 7.7 45.9
12:40 1023 30.21 852 25.16 24.8 76.6 34 8.2 46.7
12:45 1023 30.21 852 25.16 24.4 76 35 8.3 46.9
12:50 1023 30.21 852 25.16 24.6 76.3 34 7.9 46.2
12:55 1022 30.18 852 25.16 24.8 76.6 33 7.8 46
13:00 1022 30.18 852 25.16 25 77 33 7.9 46.3
13:05 1022 30.18 852 25.16 25.1 77.2 33 7.8 46.1
13:10 1022 30.18 851 25.13 24.9 76.8 33 7.8 46
13:15 1022 30.18 851 25.13 25 76.9 33 7.6 45.7
13:20 1022 30.18 851 25.13 25.6 78.1 31 7.5 45.5
13:25 1022 30.18 851 25.13 26 78.7 32 8.1 46.6
13:30 1022 30.18 851 25.13 25.2 77.4 33 7.9 46.2
13:35 1022 30.18 851 25.13 24.7 76.4 33 7.6 45.6
13:40 1022 30.18 851 25.13 25.2 77.4 33 8 46.4
13:45 1022 30.18 851 25.13 25.4 77.8 31 7.5 45.4
13:50 1022 30.18 851 25.13 26.3 79.4 30 7.9 46.1
13:55 1022 30.18 851 25.13 26.7 80 31 8.3 46.9
14:00 1022 30.18 851 25.13 26.3 79.4 30 7.8 46
14:05 1022 30.18 851 25.13 26.4 79.6 30 7.7 45.9
14:10 1022 30.18 851 25.13 27 80.6 29 7.9 46.2
14:15 1021 30.15 851 25.13 27 80.5 30 8.2 46.7
14:20 1021 30.15 851 25.13 26.5 79.7 30 7.7 45.9
14:25 1021 30.15 851 25.13 27.1 80.7 28 7.1 44.9
14:30 1021 30.15 850 25.1 27.7 81.9 27 7.3 45.2
14:35 1021 30.15 850 25.1 28.3 83 27 7.6 45.7
14:40 1021 30.15 850 25.1 27.8 82.1 28 7.9 46.2
14:45 1021 30.15 850 25.1 28.1 82.5 27 7.6 45.7
14:50 1021 30.15 850 25.1 27.6 81.7 29 8.3 46.9
14:55 1021 30.15 850 25.1 27 80.6 29 7.8 46.1
15:00 1021 30.15 850 25.1 27 80.7 28 7.2 45
15:05 1021 30.15 850 25.1 27.6 81.7 28 7.8 46
15:10 1021 30.15 850 25.1 27.8 82 26 6.9 44.5
15:15 1021 30.15 850 25.1 27.8 82 28 7.8 46
15:20 1021 30.15 850 25.1 27.6 81.7 27 7.2 44.9
15:25 1021 30.15 850 25.1 27.5 81.4 27 6.9 44.4
15:30 1021 30.15 850 25.1 27.4 81.2 26 6.5 43.8
15:35 1021 30.15 850 25.1 27.4 81.4 25 6.1 42.9
15:40 1020 30.12 850 25.1 28.2 82.8 25 6.4 43.6
15:45 1020 30.12 850 25.1 28.5 83.3 25 6.9 44.5
15:50 1020 30.12 850 25.1 28.3 83 24 6.4 43.6
15:55 1020 30.12 850 25.1 28.7 83.7 25 7.2 45
16:00 1020 30.12 849 25.07 28.9 84.1 23 6.3 43.3
16:05 1020 30.12 849 25.07 29 84.2 23 6.4 43.5
16:10 1020 30.12 849 25.07 28.8 83.9 23 6.2 43.1
16:15 1020 30.12 849 25.07 28.8 83.8 24 6.5 43.6
16:20 1020 30.12 849 25.07 28.7 83.6 23 5.9 42.6
16:25 1020 30.12 849 25.07 29 84.1 23 6.2 43.1
16:30 1020 30.12 849 25.07 29.2 84.6 22 5.5 41.9
16:35 1020 30.12 849 25.07 29.4 85 23 6.2 43.1
16:40 1020 30.12 849 25.07 28.1 82.7 25 6.3 43.3
16:45 1020 30.12 849 25.07 28.3 83 23 5.6 42.1
16:50 1020 30.12 849 25.07 28.5 83.2 23 5.5 41.9
16:55 1020 30.12 849 25.07 28.8 83.9 21 4.9 40.9
17:00 1020 30.12 849 25.07 28.5 83.4 22 5.4 41.7
17:05 1020 30.12 849 25.07 28 82.3 23 5.4 41.7
17:10 1020 30.12 849 25.07 27.9 82.1 22 4.3 39.7
17:15 1020 30.12 849 25.07 27.9 82.2 23 5.2 41.4
17:20 1020 30.12 849 25.07 27.7 81.9 23 4.8 40.7
17:25 1020 30.12 849 25.07 27.6 81.7 22 4.5 40
17:30 1020 30.12 849 25.07 27.6 81.7 22 4.6 40.2
17:35 1020 30.12 849 25.07 27.5 81.5 22 3.9 38.9
17:40 1020 30.12 849 25.07 27.5 81.4 22 4.2 39.6
17:45 1020 30.12 849 25.07 27.5 81.5 22 4.2 39.6
17:50 1020 30.12 849 25.07 27.5 81.5 22 4.3 39.7
17:55 1020 30.12 849 25.07 27.2 81 26 6.1 42.9
18:00 1020 30.12 849 25.07 26.7 80.1 27 6.3 43.3
18:05 1020 30.12 849 25.07 26.6 79.8 27 6.3 43.4
18:10 1020 30.12 849 25.07 26.5 79.6 27 6.3 43.4
18:15 1020 30.12 849 25.07 26.4 79.5 26 5.8 42.4
18:20 1020 30.12 849 25.07 26.4 79.5 26 5.6 42.2
18:25 1020 30.12 849 25.07 26.2 79.2 27 6 42.8
18:30 1020 30.12 849 25.07 26 78.8 27 5.9 42.7
18:35 1020 30.12 849 25.07 25.9 78.6 27 5.9 42.7
18:40 1020 30.12 849 25.07 25.7 78.3 28 6.1 42.9
18:45 1020 30.12 849 25.07 25.6 78 29 6.2 43.2
18:50 1020 30.12 849 25.07 25.5 77.8 28 6.1 43
18:55 1020 30.12 849 25.07 25.3 77.5 28 6 42.8
19:00 1020 30.12 849 25.07 25.2 77.3 28 5.8 42.4
19:05 1020 30.12 849 25.07 25 77 29 5.8 42.4
19:10 1020 30.12 849 25.07 24.9 76.7 29 5.7 42.3
19:15 1020 30.12 849 25.07 24.7 76.4 29 5.8 42.5
19:20 1020 30.12 849 25.07 24.5 76.2 29 5.6 42.2
19:25 1020 30.12 849 25.07 24.4 75.9 29 5.6 42.1
19:30 1020 30.12 849 25.07 24.3 75.7 30 5.6 42.2
19:35 1020 30.12 849 25.07 24.2 75.6 30 5.6 42.1
19:40 1020 30.12 849 25.07 24.1 75.3 30 5.6 42.1
19:45 1020 30.12 849 25.07 23.9 75 30 5.4 41.7
19:50 1020 30.12 849 25.07 23.9 75 30 5.5 41.9
19:55 1020 30.12 849 25.07 23.7 74.6 30 5.5 41.9
20:00 1020 30.12 849 25.07 23.5 74.4 31 5.4 41.8
20:05 1020 30.12 849 25.07 23.4 74.1 31 5.7 42.2
20:10 1020 30.12 849 25.07 23.2 73.7 33 6 42.9
20:15 1020 30.12 849 25.07 23 73.5 32 5.5 42
20:20 1020 30.12 849 25.07 23 73.3 32 5.6 42
20:25 1020 30.12 849 25.07 22.8 73 33 5.7 42.2
20:30 1020 30.12 849 25.07 22.9 73.1 32 5.5 41.8
20:35 1020 30.12 849 25.07 22.9 73.3 32 5.5 41.9
20:40 1020 30.12 849 25.07 23.1 73.6 31 5.3 41.6
20:45 1020 30.12 849 25.07 23.1 73.6 31 5.3 41.5
20:50 1020 30.12 849 25.07 23.1 73.6 31 5.4 41.7
20:55 1020 30.12 849 25.07 23.1 73.5 31 5.3 41.5
21:00 1020 30.12 849 25.07 23 73.5 31 5.3 41.6
21:05 1020 30.12 849 25.07 22.9 73.3 32 5.4 41.7
21:10 1020 30.12 849 25.07 22.8 73.1 32 5.4 41.8
21:15 1020 30.12 849 25.07 22.7 72.9 32 5.4 41.8
21:20 1020 30.12 849 25.07 22.6 72.7 33 5.5 41.9
21:25 1020 30.12 849 25.07 22.6 72.6 33 5.6 42.1
21:30 1020 30.12 849 25.07 22.4 72.4 33 5.5 41.8
21:35 1020 30.12 849 25.07 22.3 72.2 33 5.6 42
21:40 1020 30.12 849 25.07 22.2 72 33 5.5 41.8
21:45 1020 30.12 849 25.07 22.2 72 33 5.5 42
21:50 1020 30.12 849 25.07 22.1 71.7 34 5.5 41.9
21:55 1020 30.12 849 25.07 22 71.7 34 5.5 41.9
22:00 1020 30.12 849 25.07 22 71.5 34 5.4 41.8
22:05 1020 30.12 849 25.07 22 71.5 34 5.5 41.8
22:10 1020 30.12 849 25.07 22 71.6 34 5.4 41.8
22:15 1020 30.12 849 25.07 21.9 71.4 34 5.4 41.6
22:20 1020 30.12 849 25.07 21.9 71.5 34 5.5 41.9
22:25 1020 30.12 849 25.07 21.9 71.3 34 5.5 41.8
22:30 1020 30.12 849 25.07 21.7 71.1 35 5.6 42.1
22:35 1020 30.12 849 25.07 21.7 71.1 34 5.5 41.9
22:40 1020 30.12 849 25.07 21.7 71 35 5.6 42
22:45 1020 30.12 849 25.07 21.6 70.9 35 5.6 42
22:50 1020 30.12 849 25.07 21.7 71 34 5.5 42
22:55 1020 30.12 849 25.07 21.6 71 35 5.5 41.9
23:00 1020 30.12 849 25.07 21.6 70.9 35 5.7 42.3
23:05 1020 30.12 849 25.07 21.5 70.7 35 5.7 42.2
23:10 1020 30.12 849 25.07 21.5 70.6 36 5.8 42.4
23:15 1020 30.12 849 25.07 21.3 70.3 36 5.8 42.4
23:20 1020 30.12 849 25.07 21.2 70.1 37 5.9 42.6
23:25 1020 30.12 849 25.07 21.1 69.9 37 5.9 42.7
23:30 1020 30.12 849 25.07 20.9 69.6 37 6 42.8
23:35 1020 30.12 849 25.07 20.6 69 39 6.1 43
23:40 1020 30.12 849 25.07 20.3 68.5 39 6 42.8
23:45 1020 30.12 849 25.07 20.3 68.5 39 6 42.8
23:50 1020 30.12 849 25.07 20.3 68.5 39 6.1 42.9
23:55 1020 30.12 849 25.07 20.1 68.2 40 6.3 43.3
24:00 1020 30.12 849 25.07 19.9 67.8 40 6.1 43